Pago Pago, AS

12:31 PM SST on December 28, 2014 (GMT -1100)
Lanai City | Change Station
CLOSE
Current Station
Airport
Location: Lanai City,
Elevation: 1309 ft
Nearby Weather Stations

Elev 1309 ft 20.79 °N, 156.95 °W | Updated 35 minutes ago

Clear
Clear
75 °F
Feels Like 75 °F
N
22
Wind Variable Wind from NNE
Gusts 26 mph

Today
High -- | Low -- °F
--% Chance of Precip.
Yesterday
High -- | Low -- °F
Precip. -- in
5:55 AM 6:53 PM
First Quarter, 52% visible
Pressure 29.91 in
Visibility 10.0 miles
Clouds Clear
Dew Point 56 °F
Humidity 52%
Rainfall 0.00 in
Snow Depth Not available.
UV 6 out of 12
Pollen Not available.
Air Quality Not available.
Flu Activity Not available.
METAR PHNY 282256Z AUTO 03019G23KT 10SM CLR 24/13 A2995 RMK AO2 TSNO T02380133 SLP127 $

More Conditions Fewer Conditions

Pressure 29.91 in
Visibility 10.0 miles
Clouds Clear
Dew Point 56 °F
Humidity 52%
Rainfall 0.00 in
Snow Depth Not available.
UV 6 out of 12
Pollen Not available.
Air Quality Not available.
Flu Activity Not available.
METAR PHNY 282256Z AUTO 03019G23KT 10SM CLR 24/13 A2995 RMK AO2 TSNO T02380133 SLP127 $

More Conditions Fewer Conditions

10-Day Weather Forecast

Almanac

Astronomy

Dec. 28, 2014 Rise Set
Actual Time
Civil Twilight
Nautical Twilight
Astronomical Twilight
Moon
Length of Visible Light
Length of Day
Tomorrow will be .
, % of the Moon is Illuminated

Today's Extremes

State Highs State Lows

Community

WunderPhotos

Upload Photos

1,781,460 photos uploaded!

WunderBlogs® & News

Nearby

Air Quality

  Air Quality AQ Index Pollutant
Not available.

Snow Depth

Station Depth Elevation

Earthquake Activity

City Distance Mag. Time & Date
Minimum magnitude displayed is 2.5.

Coastal Water Temperatures

Place Temperature

Nearby Weather Stations